sensor_id;sensor_type;location;lat;lon;timestamp;P1;durP1;ratioP1;P2;durP2;ratioP2
70924;SDS011;58577;52.410;13.242;2022-09-09T00:07:10;21.25;;;10.60;;
70924;SDS011;58577;52.410;13.242;2022-09-09T00:10:13;20.80;;;10.45;;
70924;SDS011;58577;52.410;13.242;2022-09-09T00:13:22;20.15;;;10.60;;
70924;SDS011;58577;52.410;13.242;2022-09-09T00:16:19;21.30;;;10.77;;
70924;SDS011;58577;52.410;13.242;2022-09-09T00:25:09;22.20;;;11.15;;
70924;SDS011;58577;52.410;13.242;2022-09-09T00:28:02;20.50;;;10.93;;
70924;SDS011;58577;52.410;13.242;2022-09-09T00:30:50;20.88;;;11.32;;
70924;SDS011;58577;52.410;13.242;2022-09-09T00:33:35;20.20;;;10.73;;
70924;SDS011;58577;52.410;13.242;2022-09-09T00:36:24;19.85;;;10.18;;
70924;SDS011;58577;52.410;13.242;2022-09-09T00:39:34;22.00;;;10.65;;
70924;SDS011;58577;52.410;13.242;2022-09-09T00:42:32;20.63;;;10.27;;
70924;SDS011;58577;52.410;13.242;2022-09-09T00:48:23;22.10;;;10.35;;
70924;SDS011;58577;52.410;13.242;2022-09-09T00:51:38;19.67;;;10.35;;
70924;SDS011;58577;52.410;13.242;2022-09-09T00:54:35;21.23;;;9.75;;
70924;SDS011;58577;52.410;13.242;2022-09-09T00:57:34;19.77;;;10.30;;
70924;SDS011;58577;52.410;13.242;2022-09-09T01:00:26;21.45;;;11.15;;
70924;SDS011;58577;52.410;13.242;2022-09-09T01:03:33;21.40;;;10.15;;
70924;SDS011;58577;52.410;13.242;2022-09-09T01:06:30;20.42;;;10.15;;
70924;SDS011;58577;52.410;13.242;2022-09-09T01:09:22;19.38;;;9.75;;
70924;SDS011;58577;52.410;13.242;2022-09-09T01:15:36;21.23;;;9.73;;
70924;SDS011;58577;52.410;13.242;2022-09-09T01:18:32;22.43;;;10.97;;
70924;SDS011;58577;52.410;13.242;2022-09-09T01:21:27;19.73;;;10.30;;
70924;SDS011;58577;52.410;13.242;2022-09-09T01:24:27;19.73;;;9.85;;
70924;SDS011;58577;52.410;13.242;2022-09-09T01:27:42;24.88;;;11.02;;
70924;SDS011;58577;52.410;13.242;2022-09-09T01:30:30;19.95;;;10.05;;
70924;SDS011;58577;52.410;13.242;2022-09-09T01:33:19;20.52;;;10.35;;
70924;SDS011;58577;52.410;13.242;2022-09-09T01:36:28;20.65;;;10.25;;
70924;SDS011;58577;52.410;13.242;2022-09-09T01:39:19;21.45;;;10.15;;
70924;SDS011;58577;52.410;13.242;2022-09-09T01:42:13;21.35;;;10.32;;
70924;SDS011;58577;52.410;13.242;2022-09-09T01:45:01;18.50;;;9.82;;
70924;SDS011;58577;52.410;13.242;2022-09-09T01:47:48;19.42;;;9.48;;
70924;SDS011;58577;52.410;13.242;2022-09-09T01:50:44;20.02;;;10.48;;
70924;SDS011;58577;52.410;13.242;2022-09-09T01:53:31;19.58;;;9.68;;
70924;SDS011;58577;52.410;13.242;2022-09-09T01:56:35;19.52;;;9.57;;
70924;SDS011;58577;52.410;13.242;2022-09-09T02:02:18;20.38;;;10.32;;
70924;SDS011;58577;52.410;13.242;2022-09-09T02:11:45;19.77;;;9.68;;
70924;SDS011;58577;52.410;13.242;2022-09-09T02:14:55;21.38;;;10.30;;
70924;SDS011;58577;52.410;13.242;2022-09-09T02:17:49;22.15;;;10.35;;
70924;SDS011;58577;52.410;13.242;2022-09-09T02:20:37;20.67;;;10.48;;
70924;SDS011;58577;52.410;13.242;2022-09-09T02:23:24;21.67;;;9.77;;
70924;SDS011;58577;52.410;13.242;2022-09-09T02:26:14;21.13;;;10.68;;
70924;SDS011;58577;52.410;13.242;2022-09-09T02:29:08;19.55;;;9.63;;
70924;SDS011;58577;52.410;13.242;2022-09-09T02:32:06;19.08;;;9.43;;
70924;SDS011;58577;52.410;13.242;2022-09-09T02:35:02;20.95;;;10.25;;
70924;SDS011;58577;52.410;13.242;2022-09-09T02:37:53;21.10;;;9.93;;
70924;SDS011;58577;52.410;13.242;2022-09-09T02:40:44;19.90;;;9.68;;
70924;SDS011;58577;52.410;13.242;2022-09-09T02:43:32;20.38;;;9.52;;
70924;SDS011;58577;52.410;13.242;2022-09-09T02:52:46;20.38;;;9.75;;
70924;SDS011;58577;52.410;13.242;2022-09-09T02:55:50;21.67;;;9.85;;
70924;SDS011;58577;52.410;13.242;2022-09-09T02:58:42;21.65;;;9.90;;
70924;SDS011;58577;52.410;13.242;2022-09-09T03:01:29;21.50;;;10.68;;
70924;SDS011;58577;52.410;13.242;2022-09-09T03:04:15;20.10;;;10.18;;
70924;SDS011;58577;52.410;13.242;2022-09-09T03:07:01;20.35;;;9.73;;
70924;SDS011;58577;52.410;13.242;2022-09-09T03:09:48;19.80;;;9.27;;
70924;SDS011;58577;52.410;13.242;2022-09-09T03:12:34;20.38;;;9.50;;
70924;SDS011;58577;52.410;13.242;2022-09-09T03:15:20;21.05;;;10.13;;
70924;SDS011;58577;52.410;13.242;2022-09-09T03:18:06;19.45;;;9.20;;
70924;SDS011;58577;52.410;13.242;2022-09-09T03:20:53;19.42;;;9.68;;
70924;SDS011;58577;52.410;13.242;2022-09-09T03:23:40;20.58;;;9.68;;
70924;SDS011;58577;52.410;13.242;2022-09-09T03:26:26;19.45;;;9.68;;
70924;SDS011;58577;52.410;13.242;2022-09-09T03:29:12;23.15;;;10.15;;
70924;SDS011;58577;52.410;13.242;2022-09-09T03:31:59;22.23;;;9.98;;
70924;SDS011;58577;52.410;13.242;2022-09-09T03:34:45;20.90;;;10.00;;
70924;SDS011;58577;52.410;13.242;2022-09-09T03:37:33;19.42;;;9.80;;
70924;SDS011;58577;52.410;13.242;2022-09-09T03:40:19;22.15;;;10.00;;
70924;SDS011;58577;52.410;13.242;2022-09-09T03:43:05;19.85;;;8.82;;
70924;SDS011;58577;52.410;13.242;2022-09-09T03:45:52;22.65;;;10.25;;
70924;SDS011;58577;52.410;13.242;2022-09-09T03:48:39;20.95;;;9.57;;
70924;SDS011;58577;52.410;13.242;2022-09-09T03:51:25;22.02;;;10.55;;
70924;SDS011;58577;52.410;13.242;2022-09-09T03:54:10;24.42;;;11.32;;
70924;SDS011;58577;52.410;13.242;2022-09-09T03:56:57;19.67;;;9.95;;
70924;SDS011;58577;52.410;13.242;2022-09-09T03:59:43;21.13;;;10.15;;
70924;SDS011;58577;52.410;13.242;2022-09-09T04:02:29;21.63;;;10.45;;
70924;SDS011;58577;52.410;13.242;2022-09-09T04:05:15;21.10;;;10.48;;
70924;SDS011;58577;52.410;13.242;2022-09-09T04:08:02;22.77;;;10.35;;
70924;SDS011;58577;52.410;13.242;2022-09-09T04:10:49;23.23;;;9.85;;
70924;SDS011;58577;52.410;13.242;2022-09-09T04:13:36;20.55;;;10.02;;
70924;SDS011;58577;52.410;13.242;2022-09-09T04:16:26;22.40;;;10.30;;
70924;SDS011;58577;52.410;13.242;2022-09-09T04:19:12;24.35;;;11.02;;
70924;SDS011;58577;52.410;13.242;2022-09-09T04:22:01;22.17;;;10.55;;
70924;SDS011;58577;52.410;13.242;2022-09-09T04:24:47;20.23;;;9.43;;
70924;SDS011;58577;52.410;13.242;2022-09-09T04:27:33;21.92;;;10.75;;
70924;SDS011;58577;52.410;13.242;2022-09-09T04:30:20;22.25;;;10.43;;
70924;SDS011;58577;52.410;13.242;2022-09-09T04:33:06;25.20;;;11.05;;
70924;SDS011;58577;52.410;13.242;2022-09-09T04:35:53;24.35;;;11.52;;
70924;SDS011;58577;52.410;13.242;2022-09-09T04:38:43;22.92;;;11.32;;
70924;SDS011;58577;52.410;13.242;2022-09-09T04:41:30;21.23;;;9.88;;
70924;SDS011;58577;52.410;13.242;2022-09-09T04:44:17;22.73;;;10.75;;
70924;SDS011;58577;52.410;13.242;2022-09-09T04:47:03;21.25;;;11.50;;
70924;SDS011;58577;52.410;13.242;2022-09-09T04:49:49;23.50;;;10.50;;
70924;SDS011;58577;52.410;13.242;2022-09-09T04:52:35;20.60;;;10.15;;
70924;SDS011;58577;52.410;13.242;2022-09-09T04:55:21;24.25;;;11.00;;
70924;SDS011;58577;52.410;13.242;2022-09-09T04:58:07;22.88;;;11.13;;
70924;SDS011;58577;52.410;13.242;2022-09-09T05:00:54;20.80;;;10.23;;
70924;SDS011;58577;52.410;13.242;2022-09-09T05:03:40;20.48;;;9.82;;
70924;SDS011;58577;52.410;13.242;2022-09-09T05:06:29;21.25;;;10.35;;
70924;SDS011;58577;52.410;13.242;2022-09-09T05:09:19;22.27;;;10.35;;
70924;SDS011;58577;52.410;13.242;2022-09-09T05:12:06;19.52;;;9.30;;
70924;SDS011;58577;52.410;13.242;2022-09-09T05:14:54;21.23;;;10.35;;
70924;SDS011;58577;52.410;13.242;2022-09-09T05:17:41;22.38;;;11.20;;
70924;SDS011;58577;52.410;13.242;2022-09-09T05:20:28;23.98;;;10.68;;
70924;SDS011;58577;52.410;13.242;2022-09-09T05:23:14;26.70;;;12.20;;
70924;SDS011;58577;52.410;13.242;2022-09-09T05:26:00;20.40;;;10.45;;
70924;SDS011;58577;52.410;13.242;2022-09-09T05:28:48;23.77;;;11.48;;
70924;SDS011;58577;52.410;13.242;2022-09-09T05:31:35;20.40;;;11.20;;
70924;SDS011;58577;52.410;13.242;2022-09-09T05:34:23;22.73;;;11.05;;
70924;SDS011;58577;52.410;13.242;2022-09-09T05:37:09;27.02;;;12.05;;
70924;SDS011;58577;52.410;13.242;2022-09-09T05:39:56;22.30;;;11.38;;
70924;SDS011;58577;52.410;13.242;2022-09-09T05:42:43;21.90;;;10.60;;
70924;SDS011;58577;52.410;13.242;2022-09-09T05:45:29;20.58;;;10.23;;
70924;SDS011;58577;52.410;13.242;2022-09-09T05:48:14;20.25;;;10.10;;
70924;SDS011;58577;52.410;13.242;2022-09-09T05:51:01;19.75;;;10.40;;
70924;SDS011;58577;52.410;13.242;2022-09-09T05:53:48;19.13;;;10.43;;
70924;SDS011;58577;52.410;13.242;2022-09-09T05:56:34;20.95;;;10.43;;
70924;SDS011;58577;52.410;13.242;2022-09-09T05:59:20;18.73;;;10.10;;
70924;SDS011;58577;52.410;13.242;2022-09-09T06:02:10;18.33;;;9.83;;
70924;SDS011;58577;52.410;13.242;2022-09-09T06:04:56;19.17;;;9.32;;
70924;SDS011;58577;52.410;13.242;2022-09-09T06:07:43;15.35;;;8.52;;
70924;SDS011;58577;52.410;13.242;2022-09-09T06:10:30;16.25;;;9.07;;
70924;SDS011;58577;52.410;13.242;2022-09-09T06:13:16;15.93;;;8.18;;
70924;SDS011;58577;52.410;13.242;2022-09-09T06:16:03;18.67;;;8.70;;
70924;SDS011;58577;52.410;13.242;2022-09-09T06:18:50;17.55;;;7.88;;
70924;SDS011;58577;52.410;13.242;2022-09-09T06:21:37;17.90;;;8.10;;
70924;SDS011;58577;52.410;13.242;2022-09-09T06:24:26;15.02;;;7.60;;
70924;SDS011;58577;52.410;13.242;2022-09-09T06:27:12;16.60;;;8.27;;
70924;SDS011;58577;52.410;13.242;2022-09-09T06:29:59;13.20;;;7.32;;
70924;SDS011;58577;52.410;13.242;2022-09-09T06:32:45;14.75;;;7.30;;
70924;SDS011;58577;52.410;13.242;2022-09-09T06:35:31;14.98;;;7.53;;
70924;SDS011;58577;52.410;13.242;2022-09-09T06:38:17;12.82;;;6.50;;
70924;SDS011;58577;52.410;13.242;2022-09-09T06:41:04;14.93;;;7.30;;
70924;SDS011;58577;52.410;13.242;2022-09-09T06:43:52;12.77;;;6.68;;
70924;SDS011;58577;52.410;13.242;2022-09-09T06:46:47;11.02;;;6.43;;
70924;SDS011;58577;52.410;13.242;2022-09-09T06:49:33;16.00;;;7.35;;
70924;SDS011;58577;52.410;13.242;2022-09-09T06:52:22;8.77;;;5.20;;
70924;SDS011;58577;52.410;13.242;2022-09-09T06:55:10;6.60;;;3.90;;
70924;SDS011;58577;52.410;13.242;2022-09-09T06:57:56;4.82;;;3.47;;
70924;SDS011;58577;52.410;13.242;2022-09-09T07:00:42;7.35;;;3.40;;
70924;SDS011;58577;52.410;13.242;2022-09-09T07:03:28;4.50;;;3.80;;
70924;SDS011;58577;52.410;13.242;2022-09-09T07:06:15;5.82;;;3.80;;
70924;SDS011;58577;52.410;13.242;2022-09-09T07:09:05;5.60;;;3.72;;
70924;SDS011;58577;52.410;13.242;2022-09-09T07:11:54;6.72;;;3.65;;
70924;SDS011;58577;52.410;13.242;2022-09-09T07:14:43;5.00;;;3.28;;
70924;SDS011;58577;52.410;13.242;2022-09-09T07:17:29;6.65;;;3.90;;
70924;SDS011;58577;52.410;13.242;2022-09-09T07:20:16;6.25;;;3.75;;
70924;SDS011;58577;52.410;13.242;2022-09-09T07:23:02;7.18;;;4.20;;
70924;SDS011;58577;52.410;13.242;2022-09-09T07:25:48;7.63;;;3.53;;
70924;SDS011;58577;52.410;13.242;2022-09-09T07:28:36;7.10;;;3.83;;
70924;SDS011;58577;52.410;13.242;2022-09-09T07:31:26;6.22;;;4.13;;
70924;SDS011;58577;52.410;13.242;2022-09-09T07:34:15;8.45;;;4.00;;
70924;SDS011;58577;52.410;13.242;2022-09-09T07:37:01;6.45;;;3.60;;
70924;SDS011;58577;52.410;13.242;2022-09-09T07:39:48;5.18;;;3.55;;
70924;SDS011;58577;52.410;13.242;2022-09-09T07:42:36;7.85;;;3.78;;
70924;SDS011;58577;52.410;13.242;2022-09-09T07:45:22;7.25;;;3.83;;
70924;SDS011;58577;52.410;13.242;2022-09-09T07:48:09;6.32;;;3.20;;
70924;SDS011;58577;52.410;13.242;2022-09-09T07:51:06;6.80;;;3.40;;
70924;SDS011;58577;52.410;13.242;2022-09-09T07:53:55;5.75;;;3.28;;
70924;SDS011;58577;52.410;13.242;2022-09-09T07:56:46;5.32;;;3.45;;
70924;SDS011;58577;52.410;13.242;2022-09-09T07:59:32;6.15;;;3.50;;
70924;SDS011;58577;52.410;13.242;2022-09-09T08:02:19;5.97;;;2.88;;
70924;SDS011;58577;52.410;13.242;2022-09-09T08:05:05;5.50;;;3.40;;
70924;SDS011;58577;52.410;13.242;2022-09-09T08:10:40;4.72;;;3.13;;
70924;SDS011;58577;52.410;13.242;2022-09-09T08:13:27;6.20;;;3.35;;
70924;SDS011;58577;52.410;13.242;2022-09-09T08:16:14;6.57;;;3.10;;
70924;SDS011;58577;52.410;13.242;2022-09-09T08:19:09;6.53;;;3.30;;
70924;SDS011;58577;52.410;13.242;2022-09-09T08:21:56;5.88;;;3.05;;
70924;SDS011;58577;52.410;13.242;2022-09-09T08:24:42;6.45;;;2.92;;
70924;SDS011;58577;52.410;13.242;2022-09-09T08:27:28;6.22;;;3.13;;
70924;SDS011;58577;52.410;13.242;2022-09-09T08:30:14;6.93;;;3.35;;
70924;SDS011;58577;52.410;13.242;2022-09-09T08:33:00;6.22;;;2.80;;
70924;SDS011;58577;52.410;13.242;2022-09-09T08:35:49;8.05;;;3.00;;
70924;SDS011;58577;52.410;13.242;2022-09-09T08:38:39;7.80;;;3.05;;
70924;SDS011;58577;52.410;13.242;2022-09-09T08:44:45;4.10;;;2.75;;
70924;SDS011;58577;52.410;13.242;2022-09-09T08:50:43;5.35;;;3.10;;
70924;SDS011;58577;52.410;13.242;2022-09-09T08:53:43;5.32;;;3.13;;
70924;SDS011;58577;52.410;13.242;2022-09-09T08:56:33;5.38;;;3.10;;
70924;SDS011;58577;52.410;13.242;2022-09-09T08:59:20;6.90;;;3.05;;
70924;SDS011;58577;52.410;13.242;2022-09-09T09:11:23;5.45;;;2.92;;
70924;SDS011;58577;52.410;13.242;2022-09-09T09:14:11;3.78;;;2.70;;
70924;SDS011;58577;52.410;13.242;2022-09-09T09:17:21;6.05;;;2.60;;
70924;SDS011;58577;52.410;13.242;2022-09-09T09:20:13;5.60;;;2.77;;
70924;SDS011;58577;52.410;13.242;2022-09-09T09:23:01;5.28;;;2.50;;
70924;SDS011;58577;52.410;13.242;2022-09-09T09:25:52;3.72;;;2.22;;
70924;SDS011;58577;52.410;13.242;2022-09-09T09:40:11;4.70;;;2.50;;
70924;SDS011;58577;52.410;13.242;2022-09-09T09:42:59;3.15;;;2.15;;
70924;SDS011;58577;52.410;13.242;2022-09-09T09:45:47;5.38;;;2.28;;
70924;SDS011;58577;52.410;13.242;2022-09-09T09:48:34;3.30;;;1.92;;
70924;SDS011;58577;52.410;13.242;2022-09-09T09:51:21;5.22;;;2.35;;
70924;SDS011;58577;52.410;13.242;2022-09-09T10:00:18;6.82;;;2.35;;
70924;SDS011;58577;52.410;13.242;2022-09-09T10:03:27;2.97;;;2.13;;
70924;SDS011;58577;52.410;13.242;2022-09-09T10:06:16;2.65;;;2.30;;
70924;SDS011;58577;52.410;13.242;2022-09-09T10:09:03;5.88;;;2.42;;
70924;SDS011;58577;52.410;13.242;2022-09-09T10:18:16;6.38;;;2.75;;
70924;SDS011;58577;52.410;13.242;2022-09-09T10:21:22;4.43;;;2.45;;
70924;SDS011;58577;52.410;13.242;2022-09-09T10:24:50;4.35;;;2.20;;
70924;SDS011;58577;52.410;13.242;2022-09-09T10:31:10;6.07;;;2.15;;
70924;SDS011;58577;52.410;13.242;2022-09-09T10:34:52;4.72;;;2.10;;
70924;SDS011;58577;52.410;13.242;2022-09-09T10:37:24;4.93;;;2.15;;
70924;SDS011;58577;52.410;13.242;2022-09-09T10:52:42;3.45;;;2.20;;
70924;SDS011;58577;52.410;13.242;2022-09-09T10:55:34;4.40;;;2.00;;
70924;SDS011;58577;52.410;13.242;2022-09-09T10:58:30;2.60;;;2.20;;
70924;SDS011;58577;52.410;13.242;2022-09-09T11:04:45;4.18;;;1.80;;
70924;SDS011;58577;52.410;13.242;2022-09-09T11:10:38;2.53;;;2.05;;
70924;SDS011;58577;52.410;13.242;2022-09-09T11:14:14;3.72;;;2.00;;
70924;SDS011;58577;52.410;13.242;2022-09-09T11:16:49;5.07;;;2.03;;
70924;SDS011;58577;52.410;13.242;2022-09-09T11:19:38;3.40;;;1.85;;
70924;SDS011;58577;52.410;13.242;2022-09-09T11:37:08;3.85;;;1.75;;
70924;SDS011;58577;52.410;13.242;2022-09-09T11:43:14;3.15;;;1.67;;
70924;SDS011;58577;52.410;13.242;2022-09-09T11:46:09;6.03;;;2.05;;
70924;SDS011;58577;52.410;13.242;2022-09-09T11:48:59;3.53;;;2.13;;
70924;SDS011;58577;52.410;13.242;2022-09-09T11:51:49;3.28;;;2.00;;
70924;SDS011;58577;52.410;13.242;2022-09-09T11:54:44;3.13;;;1.92;;
70924;SDS011;58577;52.410;13.242;2022-09-09T11:57:34;3.05;;;1.63;;
70924;SDS011;58577;52.410;13.242;2022-09-09T12:00:31;5.65;;;1.60;;
70924;SDS011;58577;52.410;13.242;2022-09-09T12:03:48;2.03;;;1.40;;
70924;SDS011;58577;52.410;13.242;2022-09-09T12:06:42;1.95;;;1.60;;
70924;SDS011;58577;52.410;13.242;2022-09-09T12:12:41;1.83;;;1.38;;
70924;SDS011;58577;52.410;13.242;2022-09-09T12:15:28;2.47;;;1.50;;
70924;SDS011;58577;52.410;13.242;2022-09-09T12:18:25;2.78;;;1.60;;
70924;SDS011;58577;52.410;13.242;2022-09-09T12:21:37;3.53;;;1.63;;
70924;SDS011;58577;52.410;13.242;2022-09-09T12:28:06;1.90;;;1.40;;
70924;SDS011;58577;52.410;13.242;2022-09-09T12:34:09;2.70;;;1.50;;
70924;SDS011;58577;52.410;13.242;2022-09-09T12:37:02;4.15;;;1.60;;
70924;SDS011;58577;52.410;13.242;2022-09-09T12:40:15;3.33;;;1.55;;
70924;SDS011;58577;52.410;13.242;2022-09-09T12:43:21;1.60;;;1.50;;
70924;SDS011;58577;52.410;13.242;2022-09-09T12:46:09;2.80;;;1.80;;
70924;SDS011;58577;52.410;13.242;2022-09-09T12:49:22;5.03;;;2.20;;
70924;SDS011;58577;52.410;13.242;2022-09-09T12:52:15;6.13;;;2.17;;
70924;SDS011;58577;52.410;13.242;2022-09-09T12:55:06;5.00;;;2.00;;
70924;SDS011;58577;52.410;13.242;2022-09-09T12:57:54;3.67;;;1.73;;
70924;SDS011;58577;52.410;13.242;2022-09-09T13:00:48;3.80;;;1.70;;
70924;SDS011;58577;52.410;13.242;2022-09-09T13:03:41;3.35;;;1.83;;
70924;SDS011;58577;52.410;13.242;2022-09-09T13:06:29;1.83;;;1.30;;
70924;SDS011;58577;52.410;13.242;2022-09-09T13:09:16;2.85;;;1.65;;
70924;SDS011;58577;52.410;13.242;2022-09-09T13:12:02;3.85;;;1.45;;
70924;SDS011;58577;52.410;13.242;2022-09-09T13:14:52;3.55;;;1.85;;
70924;SDS011;58577;52.410;13.242;2022-09-09T13:17:40;4.45;;;1.90;;
70924;SDS011;58577;52.410;13.242;2022-09-09T13:20:26;3.90;;;1.85;;
70924;SDS011;58577;52.410;13.242;2022-09-09T13:23:13;7.50;;;2.00;;
70924;SDS011;58577;52.410;13.242;2022-09-09T13:26:04;4.03;;;1.92;;
70924;SDS011;58577;52.410;13.242;2022-09-09T13:28:53;4.80;;;1.83;;
70924;SDS011;58577;52.410;13.242;2022-09-09T13:31:40;4.82;;;2.00;;
70924;SDS011;58577;52.410;13.242;2022-09-09T13:34:30;6.82;;;1.80;;
70924;SDS011;58577;52.410;13.242;2022-09-09T13:37:23;3.80;;;1.70;;
70924;SDS011;58577;52.410;13.242;2022-09-09T13:40:20;3.42;;;1.77;;
70924;SDS011;58577;52.410;13.242;2022-09-09T13:43:13;3.20;;;1.90;;
70924;SDS011;58577;52.410;13.242;2022-09-09T13:52:30;4.28;;;1.77;;
70924;SDS011;58577;52.410;13.242;2022-09-09T13:55:09;3.03;;;1.83;;
70924;SDS011;58577;52.410;13.242;2022-09-09T13:58:02;4.57;;;1.90;;
70924;SDS011;58577;52.410;13.242;2022-09-09T14:00:51;3.35;;;1.70;;
70924;SDS011;58577;52.410;13.242;2022-09-09T14:03:38;7.07;;;1.77;;
70924;SDS011;58577;52.410;13.242;2022-09-09T14:06:24;2.17;;;1.58;;
70924;SDS011;58577;52.410;13.242;2022-09-09T14:09:10;4.70;;;1.70;;
70924;SDS011;58577;52.410;13.242;2022-09-09T14:11:58;2.47;;;1.60;;
70924;SDS011;58577;52.410;13.242;2022-09-09T14:14:44;3.03;;;1.65;;
70924;SDS011;58577;52.410;13.242;2022-09-09T14:17:30;5.10;;;2.30;;
70924;SDS011;58577;52.410;13.242;2022-09-09T14:20:16;4.18;;;1.75;;
70924;SDS011;58577;52.410;13.242;2022-09-09T14:23:02;3.08;;;1.73;;
70924;SDS011;58577;52.410;13.242;2022-09-09T14:25:48;5.93;;;2.00;;
70924;SDS011;58577;52.410;13.242;2022-09-09T14:28:35;4.05;;;1.70;;
70924;SDS011;58577;52.410;13.242;2022-09-09T14:31:24;3.33;;;2.00;;
70924;SDS011;58577;52.410;13.242;2022-09-09T14:34:10;4.60;;;2.23;;
70924;SDS011;58577;52.410;13.242;2022-09-09T14:36:56;3.28;;;2.58;;
70924;SDS011;58577;52.410;13.242;2022-09-09T14:39:42;4.28;;;2.20;;
70924;SDS011;58577;52.410;13.242;2022-09-09T14:42:29;4.50;;;1.90;;
70924;SDS011;58577;52.410;13.242;2022-09-09T14:45:15;5.78;;;1.90;;
70924;SDS011;58577;52.410;13.242;2022-09-09T14:48:01;6.47;;;1.70;;
70924;SDS011;58577;52.410;13.242;2022-09-09T14:50:48;2.25;;;1.75;;
70924;SDS011;58577;52.410;13.242;2022-09-09T14:53:34;5.25;;;2.05;;
70924;SDS011;58577;52.410;13.242;2022-09-09T14:56:21;1.80;;;1.70;;
70924;SDS011;58577;52.410;13.242;2022-09-09T14:59:09;5.90;;;1.98;;
70924;SDS011;58577;52.410;13.242;2022-09-09T15:01:55;4.95;;;1.77;;
70924;SDS011;58577;52.410;13.242;2022-09-09T15:04:41;4.38;;;2.17;;
70924;SDS011;58577;52.410;13.242;2022-09-09T15:07:26;3.10;;;1.80;;
70924;SDS011;58577;52.410;13.242;2022-09-09T15:10:13;1.90;;;1.48;;
70924;SDS011;58577;52.410;13.242;2022-09-09T15:13:00;2.80;;;1.70;;
70924;SDS011;58577;52.410;13.242;2022-09-09T15:15:45;2.80;;;1.80;;
70924;SDS011;58577;52.410;13.242;2022-09-09T15:18:31;5.00;;;1.90;;
70924;SDS011;58577;52.410;13.242;2022-09-09T15:21:19;1.65;;;1.50;;
70924;SDS011;58577;52.410;13.242;2022-09-09T15:24:06;4.88;;;2.28;;
70924;SDS011;58577;52.410;13.242;2022-09-09T15:26:53;4.95;;;1.90;;
70924;SDS011;58577;52.410;13.242;2022-09-09T15:37:55;3.75;;;1.80;;
70924;SDS011;58577;52.410;13.242;2022-09-09T15:40:43;3.38;;;1.90;;
70924;SDS011;58577;52.410;13.242;2022-09-09T15:43:29;7.38;;;2.10;;
70924;SDS011;58577;52.410;13.242;2022-09-09T15:49:22;4.03;;;1.90;;
70924;SDS011;58577;52.410;13.242;2022-09-09T15:52:12;3.08;;;1.65;;
70924;SDS011;58577;52.410;13.242;2022-09-09T15:54:57;1.60;;;1.50;;
70924;SDS011;58577;52.410;13.242;2022-09-09T15:57:43;4.00;;;1.83;;
70924;SDS011;58577;52.410;13.242;2022-09-09T16:00:29;4.80;;;1.80;;
70924;SDS011;58577;52.410;13.242;2022-09-09T16:03:15;4.70;;;2.10;;
70924;SDS011;58577;52.410;13.242;2022-09-09T16:06:01;4.43;;;2.50;;
70924;SDS011;58577;52.410;13.242;2022-09-09T16:08:50;10.50;;;5.65;;
70924;SDS011;58577;52.410;13.242;2022-09-09T16:11:37;12.13;;;7.25;;
70924;SDS011;58577;52.410;13.242;2022-09-09T16:14:24;11.88;;;7.25;;
70924;SDS011;58577;52.410;13.242;2022-09-09T16:17:11;7.70;;;3.17;;
70924;SDS011;58577;52.410;13.242;2022-09-09T16:19:57;6.10;;;4.50;;
70924;SDS011;58577;52.410;13.242;2022-09-09T16:22:43;5.18;;;2.72;;
70924;SDS011;58577;52.410;13.242;2022-09-09T16:25:28;5.85;;;2.70;;
70924;SDS011;58577;52.410;13.242;2022-09-09T16:28:14;10.65;;;4.82;;
70924;SDS011;58577;52.410;13.242;2022-09-09T16:31:03;6.32;;;4.50;;
70924;SDS011;58577;52.410;13.242;2022-09-09T16:33:50;8.32;;;5.55;;
70924;SDS011;58577;52.410;13.242;2022-09-09T16:36:37;10.30;;;5.90;;
70924;SDS011;58577;52.410;13.242;2022-09-09T16:39:25;3.30;;;2.97;;
70924;SDS011;58577;52.410;13.242;2022-09-09T16:42:11;3.47;;;2.30;;
70924;SDS011;58577;52.410;13.242;2022-09-09T16:44:57;3.90;;;2.33;;
70924;SDS011;58577;52.410;13.242;2022-09-09T16:47:43;3.63;;;2.60;;
70924;SDS011;58577;52.410;13.242;2022-09-09T16:50:30;3.10;;;2.47;;
70924;SDS011;58577;52.410;13.242;2022-09-09T16:53:13;5.28;;;2.47;;
70924;SDS011;58577;52.410;13.242;2022-09-09T16:56:07;4.07;;;2.20;;
70924;SDS011;58577;52.410;13.242;2022-09-09T16:58:55;3.58;;;2.15;;
70924;SDS011;58577;52.410;13.242;2022-09-09T17:01:43;2.10;;;2.00;;
70924;SDS011;58577;52.410;13.242;2022-09-09T17:04:29;2.80;;;1.85;;
70924;SDS011;58577;52.410;13.242;2022-09-09T17:07:19;5.03;;;2.60;;
70924;SDS011;58577;52.410;13.242;2022-09-09T17:10:05;5.45;;;2.50;;
70924;SDS011;58577;52.410;13.242;2022-09-09T17:12:51;3.47;;;2.50;;
70924;SDS011;58577;52.410;13.242;2022-09-09T17:15:40;7.40;;;3.10;;
70924;SDS011;58577;52.410;13.242;2022-09-09T17:18:28;3.05;;;2.65;;
70924;SDS011;58577;52.410;13.242;2022-09-09T17:21:15;3.75;;;2.63;;
70924;SDS011;58577;52.410;13.242;2022-09-09T17:24:03;6.95;;;2.70;;
70924;SDS011;58577;52.410;13.242;2022-09-09T17:26:49;6.35;;;2.42;;
70924;SDS011;58577;52.410;13.242;2022-09-09T17:29:36;6.97;;;2.90;;
70924;SDS011;58577;52.410;13.242;2022-09-09T17:32:21;5.30;;;2.63;;
70924;SDS011;58577;52.410;13.242;2022-09-09T17:35:07;7.03;;;3.13;;
70924;SDS011;58577;52.410;13.242;2022-09-09T17:37:53;10.32;;;5.97;;
70924;SDS011;58577;52.410;13.242;2022-09-09T17:40:40;5.32;;;4.03;;
70924;SDS011;58577;52.410;13.242;2022-09-09T17:43:25;8.52;;;5.35;;
70924;SDS011;58577;52.410;13.242;2022-09-09T17:46:18;23.38;;;16.08;;
70924;SDS011;58577;52.410;13.242;2022-09-09T17:49:10;23.00;;;19.33;;
70924;SDS011;58577;52.410;13.242;2022-09-09T17:51:58;19.27;;;15.90;;
70924;SDS011;58577;52.410;13.242;2022-09-09T17:54:43;17.58;;;12.27;;
70924;SDS011;58577;52.410;13.242;2022-09-09T17:57:29;13.68;;;7.38;;
70924;SDS011;58577;52.410;13.242;2022-09-09T18:00:15;16.08;;;8.20;;
70924;SDS011;58577;52.410;13.242;2022-09-09T18:03:02;20.02;;;11.38;;
70924;SDS011;58577;52.410;13.242;2022-09-09T18:05:49;4.68;;;2.72;;
70924;SDS011;58577;52.410;13.242;2022-09-09T18:08:34;8.85;;;4.82;;
70924;SDS011;58577;52.410;13.242;2022-09-09T18:11:21;11.27;;;6.80;;
70924;SDS011;58577;52.410;13.242;2022-09-09T18:14:11;5.13;;;2.35;;
70924;SDS011;58577;52.410;13.242;2022-09-09T18:17:00;12.82;;;6.32;;
70924;SDS011;58577;52.410;13.242;2022-09-09T18:19:48;27.35;;;20.92;;
70924;SDS011;58577;52.410;13.242;2022-09-09T18:22:34;33.35;;;29.15;;
70924;SDS011;58577;52.410;13.242;2022-09-09T18:25:20;15.30;;;10.63;;
70924;SDS011;58577;52.410;13.242;2022-09-09T18:28:06;17.77;;;13.75;;
70924;SDS011;58577;52.410;13.242;2022-09-09T18:30:52;10.90;;;6.22;;
70924;SDS011;58577;52.410;13.242;2022-09-09T18:33:39;9.10;;;5.35;;
70924;SDS011;58577;52.410;13.242;2022-09-09T18:36:28;13.23;;;9.70;;
70924;SDS011;58577;52.410;13.242;2022-09-09T18:39:17;29.58;;;26.38;;
70924;SDS011;58577;52.410;13.242;2022-09-09T18:42:03;20.60;;;17.42;;
70924;SDS011;58577;52.410;13.242;2022-09-09T18:44:49;14.88;;;10.35;;
70924;SDS011;58577;52.410;13.242;2022-09-09T18:47:35;9.35;;;4.88;;
70924;SDS011;58577;52.410;13.242;2022-09-09T18:50:22;7.47;;;4.32;;
70924;SDS011;58577;52.410;13.242;2022-09-09T18:53:07;13.20;;;7.53;;
70924;SDS011;58577;52.410;13.242;2022-09-09T18:55:58;13.25;;;9.30;;
70924;SDS011;58577;52.410;13.242;2022-09-09T18:58:57;8.70;;;4.32;;
70924;SDS011;58577;52.410;13.242;2022-09-09T19:01:44;9.48;;;5.68;;